sensor_id;sensor_type;location;lat;lon;timestamp;P1;durP1;ratioP1;P2;durP2;ratioP2
79751;SDS011;69234;47.446;21.636;2024-01-27T00:00:03;24.73;;;24.23;;
79751;SDS011;69234;47.446;21.636;2024-01-27T00:00:39;25.17;;;24.67;;
79751;SDS011;69234;47.446;21.636;2024-01-27T00:01:10;24.50;;;24.00;;
79751;SDS011;69234;47.446;21.636;2024-01-27T00:01:41;24.80;;;24.43;;
79751;SDS011;69234;47.446;21.636;2024-01-27T00:02:12;24.93;;;24.50;;
79751;SDS011;69234;47.446;21.636;2024-01-27T00:02:43;24.87;;;24.40;;
79751;SDS011;69234;47.446;21.636;2024-01-27T00:03:14;23.80;;;23.33;;
79751;SDS011;69234;47.446;21.636;2024-01-27T00:03:45;21.63;;;21.23;;
79751;SDS011;69234;47.446;21.636;2024-01-27T00:04:16;22.53;;;21.97;;
79751;SDS011;69234;47.446;21.636;2024-01-27T00:04:47;22.57;;;22.00;;
79751;SDS011;69234;47.446;21.636;2024-01-27T00:05:18;23.53;;;23.00;;
79751;SDS011;69234;47.446;21.636;2024-01-27T00:05:49;22.90;;;22.30;;
79751;SDS011;69234;47.446;21.636;2024-01-27T00:06:20;23.53;;;22.93;;
79751;SDS011;69234;47.446;21.636;2024-01-27T00:06:51;22.50;;;22.20;;
79751;SDS011;69234;47.446;21.636;2024-01-27T00:07:22;22.20;;;21.93;;
79751;SDS011;69234;47.446;21.636;2024-01-27T00:07:55;22.77;;;22.50;;
79751;SDS011;69234;47.446;21.636;2024-01-27T00:08:26;22.63;;;22.30;;
79751;SDS011;69234;47.446;21.636;2024-01-27T00:08:58;22.23;;;21.93;;
79751;SDS011;69234;47.446;21.636;2024-01-27T00:09:29;22.30;;;21.90;;
79751;SDS011;69234;47.446;21.636;2024-01-27T00:10:01;22.53;;;22.13;;
79751;SDS011;69234;47.446;21.636;2024-01-27T00:10:33;22.07;;;21.57;;
79751;SDS011;69234;47.446;21.636;2024-01-27T00:11:04;21.90;;;21.50;;
79751;SDS011;69234;47.446;21.636;2024-01-27T00:11:34;22.23;;;21.80;;
79751;SDS011;69234;47.446;21.636;2024-01-27T00:12:05;22.63;;;22.10;;
79751;SDS011;69234;47.446;21.636;2024-01-27T00:12:37;21.37;;;20.97;;
79751;SDS011;69234;47.446;21.636;2024-01-27T00:13:08;20.73;;;20.50;;
79751;SDS011;69234;47.446;21.636;2024-01-27T00:13:39;21.10;;;20.70;;
79751;SDS011;69234;47.446;21.636;2024-01-27T00:14:10;22.13;;;21.70;;
79751;SDS011;69234;47.446;21.636;2024-01-27T00:14:41;22.00;;;21.60;;
79751;SDS011;69234;47.446;21.636;2024-01-27T00:15:13;21.73;;;21.40;;
79751;SDS011;69234;47.446;21.636;2024-01-27T00:15:44;22.20;;;21.80;;
79751;SDS011;69234;47.446;21.636;2024-01-27T00:16:15;22.83;;;22.37;;
79751;SDS011;69234;47.446;21.636;2024-01-27T00:16:46;22.50;;;22.13;;
79751;SDS011;69234;47.446;21.636;2024-01-27T00:17:17;22.87;;;22.60;;
79751;SDS011;69234;47.446;21.636;2024-01-27T00:17:50;23.37;;;23.17;;
79751;SDS011;69234;47.446;21.636;2024-01-27T00:18:21;23.87;;;23.67;;
79751;SDS011;69234;47.446;21.636;2024-01-27T00:18:53;23.27;;;23.00;;
79751;SDS011;69234;47.446;21.636;2024-01-27T00:19:24;23.40;;;23.10;;
79751;SDS011;69234;47.446;21.636;2024-01-27T00:19:55;22.03;;;21.77;;
79751;SDS011;69234;47.446;21.636;2024-01-27T00:20:26;22.43;;;22.13;;
79751;SDS011;69234;47.446;21.636;2024-01-27T00:20:57;23.43;;;23.07;;
79751;SDS011;69234;47.446;21.636;2024-01-27T00:21:28;23.63;;;23.23;;
79751;SDS011;69234;47.446;21.636;2024-01-27T00:21:59;22.27;;;21.97;;
79751;SDS011;69234;47.446;21.636;2024-01-27T00:22:30;22.13;;;21.77;;
79751;SDS011;69234;47.446;21.636;2024-01-27T00:23:01;23.07;;;22.67;;
79751;SDS011;69234;47.446;21.636;2024-01-27T00:23:32;22.57;;;22.27;;
79751;SDS011;69234;47.446;21.636;2024-01-27T00:24:04;22.63;;;22.43;;
79751;SDS011;69234;47.446;21.636;2024-01-27T00:24:35;22.00;;;21.93;;
79751;SDS011;69234;47.446;21.636;2024-01-27T00:25:06;21.80;;;21.73;;
79751;SDS011;69234;47.446;21.636;2024-01-27T00:25:37;23.10;;;22.87;;
79751;SDS011;69234;47.446;21.636;2024-01-27T00:26:08;23.10;;;22.80;;
79751;SDS011;69234;47.446;21.636;2024-01-27T00:26:39;23.30;;;22.90;;
79751;SDS011;69234;47.446;21.636;2024-01-27T00:27:10;23.07;;;22.67;;
79751;SDS011;69234;47.446;21.636;2024-01-27T00:27:41;23.13;;;22.77;;
79751;SDS011;69234;47.446;21.636;2024-01-27T00:28:12;23.57;;;23.17;;
79751;SDS011;69234;47.446;21.636;2024-01-27T00:28:43;23.17;;;22.67;;
79751;SDS011;69234;47.446;21.636;2024-01-27T00:29:14;22.87;;;22.40;;
79751;SDS011;69234;47.446;21.636;2024-01-27T00:29:45;23.37;;;23.13;;
79751;SDS011;69234;47.446;21.636;2024-01-27T00:30:16;23.67;;;23.50;;
79751;SDS011;69234;47.446;21.636;2024-01-27T00:30:47;22.77;;;22.43;;
79751;SDS011;69234;47.446;21.636;2024-01-27T00:31:18;23.23;;;22.90;;
79751;SDS011;69234;47.446;21.636;2024-01-27T00:31:49;24.73;;;24.37;;
79751;SDS011;69234;47.446;21.636;2024-01-27T00:32:20;24.10;;;23.83;;
79751;SDS011;69234;47.446;21.636;2024-01-27T00:32:51;24.10;;;23.87;;
79751;SDS011;69234;47.446;21.636;2024-01-27T00:33:22;23.53;;;23.30;;
79751;SDS011;69234;47.446;21.636;2024-01-27T00:33:53;23.87;;;23.57;;
79751;SDS011;69234;47.446;21.636;2024-01-27T00:34:24;23.90;;;23.63;;
79751;SDS011;69234;47.446;21.636;2024-01-27T00:34:55;23.87;;;23.57;;
79751;SDS011;69234;47.446;21.636;2024-01-27T00:35:26;23.23;;;22.83;;
79751;SDS011;69234;47.446;21.636;2024-01-27T00:35:57;25.20;;;24.63;;
79751;SDS011;69234;47.446;21.636;2024-01-27T00:36:28;25.33;;;24.80;;
79751;SDS011;69234;47.446;21.636;2024-01-27T00:36:59;26.13;;;25.67;;
79751;SDS011;69234;47.446;21.636;2024-01-27T00:37:30;25.57;;;25.03;;
79751;SDS011;69234;47.446;21.636;2024-01-27T00:38:01;24.90;;;24.40;;
79751;SDS011;69234;47.446;21.636;2024-01-27T00:38:32;24.63;;;24.10;;
79751;SDS011;69234;47.446;21.636;2024-01-27T00:39:04;23.80;;;23.33;;
79751;SDS011;69234;47.446;21.636;2024-01-27T00:39:35;24.87;;;24.33;;
79751;SDS011;69234;47.446;21.636;2024-01-27T00:40:12;24.10;;;23.63;;
79751;SDS011;69234;47.446;21.636;2024-01-27T00:40:43;24.87;;;24.57;;
79751;SDS011;69234;47.446;21.636;2024-01-27T00:41:17;24.67;;;24.30;;
79751;SDS011;69234;47.446;21.636;2024-01-27T00:41:48;24.50;;;24.13;;
79751;SDS011;69234;47.446;21.636;2024-01-27T00:42:19;23.03;;;22.70;;
79751;SDS011;69234;47.446;21.636;2024-01-27T00:42:54;22.77;;;22.50;;
79751;SDS011;69234;47.446;21.636;2024-01-27T00:43:25;23.77;;;23.37;;
79751;SDS011;69234;47.446;21.636;2024-01-27T00:43:56;23.03;;;22.63;;
79751;SDS011;69234;47.446;21.636;2024-01-27T00:44:27;22.47;;;22.13;;
79751;SDS011;69234;47.446;21.636;2024-01-27T00:44:58;23.27;;;22.90;;
79751;SDS011;69234;47.446;21.636;2024-01-27T00:45:29;22.73;;;22.40;;
79751;SDS011;69234;47.446;21.636;2024-01-27T00:46:00;22.90;;;22.50;;
79751;SDS011;69234;47.446;21.636;2024-01-27T00:46:31;22.83;;;22.47;;
79751;SDS011;69234;47.446;21.636;2024-01-27T00:47:02;23.73;;;23.27;;
79751;SDS011;69234;47.446;21.636;2024-01-27T00:47:33;23.93;;;23.43;;
79751;SDS011;69234;47.446;21.636;2024-01-27T00:48:04;25.30;;;24.87;;
79751;SDS011;69234;47.446;21.636;2024-01-27T00:48:36;23.10;;;22.67;;
79751;SDS011;69234;47.446;21.636;2024-01-27T00:49:07;23.03;;;22.57;;
79751;SDS011;69234;47.446;21.636;2024-01-27T00:49:38;23.67;;;23.23;;
79751;SDS011;69234;47.446;21.636;2024-01-27T00:50:09;23.10;;;22.67;;
79751;SDS011;69234;47.446;21.636;2024-01-27T00:50:39;24.83;;;24.43;;
79751;SDS011;69234;47.446;21.636;2024-01-27T00:51:10;24.83;;;24.50;;
79751;SDS011;69234;47.446;21.636;2024-01-27T00:51:41;23.53;;;23.13;;
79751;SDS011;69234;47.446;21.636;2024-01-27T00:52:13;24.87;;;24.47;;
79751;SDS011;69234;47.446;21.636;2024-01-27T00:52:44;24.17;;;23.87;;
79751;SDS011;69234;47.446;21.636;2024-01-27T00:53:15;24.63;;;24.33;;
79751;SDS011;69234;47.446;21.636;2024-01-27T00:53:45;24.37;;;24.10;;
79751;SDS011;69234;47.446;21.636;2024-01-27T00:54:16;23.90;;;23.53;;
79751;SDS011;69234;47.446;21.636;2024-01-27T00:54:47;24.97;;;24.47;;
79751;SDS011;69234;47.446;21.636;2024-01-27T00:55:18;23.90;;;23.60;;
79751;SDS011;69234;47.446;21.636;2024-01-27T00:55:49;23.40;;;23.17;;
79751;SDS011;69234;47.446;21.636;2024-01-27T00:56:20;23.53;;;23.23;;
79751;SDS011;69234;47.446;21.636;2024-01-27T00:56:51;23.33;;;23.03;;
79751;SDS011;69234;47.446;21.636;2024-01-27T00:57:22;24.23;;;24.03;;
79751;SDS011;69234;47.446;21.636;2024-01-27T00:57:53;25.33;;;25.03;;
79751;SDS011;69234;47.446;21.636;2024-01-27T00:58:24;24.27;;;23.97;;
79751;SDS011;69234;47.446;21.636;2024-01-27T00:58:55;24.33;;;24.17;;
79751;SDS011;69234;47.446;21.636;2024-01-27T00:59:26;25.20;;;24.97;;
79751;SDS011;69234;47.446;21.636;2024-01-27T00:59:57;24.87;;;24.57;;
79751;SDS011;69234;47.446;21.636;2024-01-27T01:00:28;25.43;;;25.17;;
79751;SDS011;69234;47.446;21.636;2024-01-27T01:00:59;25.33;;;25.03;;
79751;SDS011;69234;47.446;21.636;2024-01-27T01:01:31;24.57;;;24.17;;
79751;SDS011;69234;47.446;21.636;2024-01-27T01:02:02;24.37;;;23.90;;
79751;SDS011;69234;47.446;21.636;2024-01-27T01:02:34;23.77;;;23.40;;
79751;SDS011;69234;47.446;21.636;2024-01-27T01:03:05;24.77;;;24.40;;
79751;SDS011;69234;47.446;21.636;2024-01-27T01:03:36;24.27;;;23.90;;
79751;SDS011;69234;47.446;21.636;2024-01-27T01:04:07;24.87;;;24.30;;
79751;SDS011;69234;47.446;21.636;2024-01-27T01:04:38;24.20;;;23.77;;
79751;SDS011;69234;47.446;21.636;2024-01-27T01:05:09;24.10;;;23.67;;
79751;SDS011;69234;47.446;21.636;2024-01-27T01:05:40;23.43;;;23.10;;
79751;SDS011;69234;47.446;21.636;2024-01-27T01:06:10;24.53;;;24.17;;
79751;SDS011;69234;47.446;21.636;2024-01-27T01:06:41;25.67;;;25.13;;
79751;SDS011;69234;47.446;21.636;2024-01-27T01:07:12;24.60;;;24.20;;
79751;SDS011;69234;47.446;21.636;2024-01-27T01:07:43;24.10;;;23.67;;
79751;SDS011;69234;47.446;21.636;2024-01-27T01:08:14;24.17;;;23.67;;
79751;SDS011;69234;47.446;21.636;2024-01-27T01:08:45;25.40;;;24.87;;
79751;SDS011;69234;47.446;21.636;2024-01-27T01:09:16;25.57;;;25.13;;
79751;SDS011;69234;47.446;21.636;2024-01-27T01:09:47;25.93;;;25.50;;
79751;SDS011;69234;47.446;21.636;2024-01-27T01:10:18;26.80;;;26.40;;
79751;SDS011;69234;47.446;21.636;2024-01-27T01:10:49;26.00;;;25.67;;
79751;SDS011;69234;47.446;21.636;2024-01-27T01:11:20;25.90;;;25.57;;
79751;SDS011;69234;47.446;21.636;2024-01-27T01:11:51;26.10;;;25.77;;
79751;SDS011;69234;47.446;21.636;2024-01-27T01:12:22;25.63;;;25.17;;
79751;SDS011;69234;47.446;21.636;2024-01-27T01:12:53;24.23;;;23.83;;
79751;SDS011;69234;47.446;21.636;2024-01-27T01:13:24;24.67;;;24.20;;
79751;SDS011;69234;47.446;21.636;2024-01-27T01:13:55;25.07;;;24.40;;
79751;SDS011;69234;47.446;21.636;2024-01-27T01:14:26;25.80;;;25.20;;
79751;SDS011;69234;47.446;21.636;2024-01-27T01:14:57;25.93;;;25.63;;
79751;SDS011;69234;47.446;21.636;2024-01-27T01:15:28;25.83;;;25.47;;
79751;SDS011;69234;47.446;21.636;2024-01-27T01:15:59;25.20;;;24.70;;
79751;SDS011;69234;47.446;21.636;2024-01-27T01:16:30;24.87;;;24.47;;
79751;SDS011;69234;47.446;21.636;2024-01-27T01:17:01;24.63;;;24.47;;
79751;SDS011;69234;47.446;21.636;2024-01-27T01:17:32;24.17;;;24.17;;
79751;SDS011;69234;47.446;21.636;2024-01-27T01:18:03;24.57;;;24.50;;
79751;SDS011;69234;47.446;21.636;2024-01-27T01:18:34;24.27;;;24.10;;
79751;SDS011;69234;47.446;21.636;2024-01-27T01:19:06;24.80;;;24.53;;
79751;SDS011;69234;47.446;21.636;2024-01-27T01:19:37;25.07;;;24.67;;
79751;SDS011;69234;47.446;21.636;2024-01-27T01:20:08;24.80;;;24.40;;
79751;SDS011;69234;47.446;21.636;2024-01-27T01:20:39;25.53;;;25.07;;
79751;SDS011;69234;47.446;21.636;2024-01-27T01:21:10;26.00;;;25.63;;
79751;SDS011;69234;47.446;21.636;2024-01-27T01:21:41;25.80;;;25.50;;
79751;SDS011;69234;47.446;21.636;2024-01-27T01:22:12;24.30;;;23.90;;
79751;SDS011;69234;47.446;21.636;2024-01-27T01:22:43;24.30;;;23.90;;
79751;SDS011;69234;47.446;21.636;2024-01-27T01:23:14;23.33;;;22.93;;
79751;SDS011;69234;47.446;21.636;2024-01-27T01:23:45;23.40;;;23.00;;
79751;SDS011;69234;47.446;21.636;2024-01-27T01:24:16;23.23;;;22.87;;
79751;SDS011;69234;47.446;21.636;2024-01-27T01:24:47;23.20;;;22.90;;
79751;SDS011;69234;47.446;21.636;2024-01-27T01:25:18;23.13;;;22.87;;
79751;SDS011;69234;47.446;21.636;2024-01-27T01:25:49;22.83;;;22.60;;
79751;SDS011;69234;47.446;21.636;2024-01-27T01:26:20;23.37;;;23.00;;
79751;SDS011;69234;47.446;21.636;2024-01-27T01:26:51;23.73;;;23.40;;
79751;SDS011;69234;47.446;21.636;2024-01-27T01:27:22;24.77;;;24.47;;
79751;SDS011;69234;47.446;21.636;2024-01-27T01:27:53;24.40;;;23.93;;
79751;SDS011;69234;47.446;21.636;2024-01-27T01:28:23;24.77;;;24.30;;
79751;SDS011;69234;47.446;21.636;2024-01-27T01:28:54;26.70;;;26.17;;
79751;SDS011;69234;47.446;21.636;2024-01-27T01:29:25;25.90;;;25.47;;
79751;SDS011;69234;47.446;21.636;2024-01-27T01:29:57;26.70;;;26.37;;
79751;SDS011;69234;47.446;21.636;2024-01-27T01:30:27;26.90;;;26.73;;
79751;SDS011;69234;47.446;21.636;2024-01-27T01:30:58;28.03;;;27.80;;
79751;SDS011;69234;47.446;21.636;2024-01-27T01:31:29;30.10;;;29.83;;
79751;SDS011;69234;47.446;21.636;2024-01-27T01:32:00;31.53;;;31.23;;
79751;SDS011;69234;47.446;21.636;2024-01-27T01:32:34;31.13;;;30.73;;
79751;SDS011;69234;47.446;21.636;2024-01-27T01:33:06;30.90;;;30.40;;
79751;SDS011;69234;47.446;21.636;2024-01-27T01:33:37;30.07;;;29.60;;
79751;SDS011;69234;47.446;21.636;2024-01-27T01:34:08;29.80;;;29.40;;
79751;SDS011;69234;47.446;21.636;2024-01-27T01:34:39;27.00;;;26.73;;
79751;SDS011;69234;47.446;21.636;2024-01-27T01:35:10;26.97;;;26.57;;
79751;SDS011;69234;47.446;21.636;2024-01-27T01:35:41;25.10;;;24.60;;
79751;SDS011;69234;47.446;21.636;2024-01-27T01:36:12;23.03;;;22.57;;
79751;SDS011;69234;47.446;21.636;2024-01-27T01:36:43;24.80;;;24.30;;
79751;SDS011;69234;47.446;21.636;2024-01-27T01:37:14;23.97;;;23.47;;
79751;SDS011;69234;47.446;21.636;2024-01-27T01:37:44;23.50;;;23.07;;
79751;SDS011;69234;47.446;21.636;2024-01-27T01:38:18;24.27;;;23.70;;
79751;SDS011;69234;47.446;21.636;2024-01-27T01:38:49;24.30;;;23.70;;
79751;SDS011;69234;47.446;21.636;2024-01-27T01:39:19;24.37;;;23.87;;
79751;SDS011;69234;47.446;21.636;2024-01-27T01:39:50;23.60;;;23.13;;
79751;SDS011;69234;47.446;21.636;2024-01-27T01:40:21;23.43;;;23.07;;
79751;SDS011;69234;47.446;21.636;2024-01-27T01:40:54;23.50;;;23.10;;
79751;SDS011;69234;47.446;21.636;2024-01-27T01:41:24;22.97;;;22.60;;
79751;SDS011;69234;47.446;21.636;2024-01-27T01:41:55;22.73;;;22.57;;
79751;SDS011;69234;47.446;21.636;2024-01-27T01:42:26;23.90;;;23.60;;
79751;SDS011;69234;47.446;21.636;2024-01-27T01:42:58;24.00;;;23.60;;
79751;SDS011;69234;47.446;21.636;2024-01-27T01:43:29;23.00;;;22.63;;
79751;SDS011;69234;47.446;21.636;2024-01-27T01:44:00;23.03;;;22.77;;
79751;SDS011;69234;47.446;21.636;2024-01-27T01:44:31;23.70;;;23.37;;
79751;SDS011;69234;47.446;21.636;2024-01-27T01:45:02;23.57;;;23.20;;
79751;SDS011;69234;47.446;21.636;2024-01-27T01:45:33;23.20;;;22.87;;
79751;SDS011;69234;47.446;21.636;2024-01-27T01:46:04;22.43;;;22.40;;
79751;SDS011;69234;47.446;21.636;2024-01-27T01:46:35;23.00;;;22.83;;
79751;SDS011;69234;47.446;21.636;2024-01-27T01:47:06;22.77;;;22.50;;
79751;SDS011;69234;47.446;21.636;2024-01-27T01:47:38;23.73;;;23.40;;
79751;SDS011;69234;47.446;21.636;2024-01-27T01:48:09;22.80;;;22.43;;
79751;SDS011;69234;47.446;21.636;2024-01-27T01:48:40;22.77;;;22.30;;
79751;SDS011;69234;47.446;21.636;2024-01-27T01:49:11;22.33;;;22.00;;
79751;SDS011;69234;47.446;21.636;2024-01-27T01:49:42;22.67;;;22.43;;
79751;SDS011;69234;47.446;21.636;2024-01-27T01:50:13;23.13;;;22.83;;
79751;SDS011;69234;47.446;21.636;2024-01-27T01:50:45;23.60;;;23.30;;
79751;SDS011;69234;47.446;21.636;2024-01-27T01:51:16;22.77;;;22.50;;
79751;SDS011;69234;47.446;21.636;2024-01-27T01:51:48;23.83;;;23.53;;
79751;SDS011;69234;47.446;21.636;2024-01-27T01:52:20;23.97;;;23.60;;
79751;SDS011;69234;47.446;21.636;2024-01-27T01:52:52;23.40;;;23.00;;
79751;SDS011;69234;47.446;21.636;2024-01-27T01:53:24;21.40;;;21.07;;
79751;SDS011;69234;47.446;21.636;2024-01-27T01:53:57;22.07;;;21.67;;
79751;SDS011;69234;47.446;21.636;2024-01-27T01:54:29;22.87;;;22.43;;
79751;SDS011;69234;47.446;21.636;2024-01-27T01:55:02;22.17;;;21.70;;
79751;SDS011;69234;47.446;21.636;2024-01-27T01:55:33;21.40;;;21.10;;
79751;SDS011;69234;47.446;21.636;2024-01-27T01:56:05;21.87;;;21.57;;
79751;SDS011;69234;47.446;21.636;2024-01-27T01:56:38;21.57;;;21.27;;
79751;SDS011;69234;47.446;21.636;2024-01-27T01:57:09;22.17;;;21.93;;
79751;SDS011;69234;47.446;21.636;2024-01-27T01:57:41;22.50;;;22.20;;
79751;SDS011;69234;47.446;21.636;2024-01-27T01:58:13;22.53;;;22.23;;
79751;SDS011;69234;47.446;21.636;2024-01-27T01:58:44;22.47;;;22.20;;
79751;SDS011;69234;47.446;21.636;2024-01-27T01:59:15;21.87;;;21.70;;
79751;SDS011;69234;47.446;21.636;2024-01-27T01:59:46;21.73;;;21.53;;
79751;SDS011;69234;47.446;21.636;2024-01-27T02:00:17;21.70;;;21.43;;
79751;SDS011;69234;47.446;21.636;2024-01-27T02:00:48;22.50;;;22.13;;
79751;SDS011;69234;47.446;21.636;2024-01-27T02:01:19;22.67;;;22.27;;
79751;SDS011;69234;47.446;21.636;2024-01-27T02:01:54;21.83;;;21.47;;
79751;SDS011;69234;47.446;21.636;2024-01-27T02:02:25;21.20;;;20.80;;
79751;SDS011;69234;47.446;21.636;2024-01-27T02:02:56;21.03;;;20.87;;
79751;SDS011;69234;47.446;21.636;2024-01-27T02:03:27;21.53;;;21.50;;
79751;SDS011;69234;47.446;21.636;2024-01-27T02:03:58;21.90;;;21.77;;
79751;SDS011;69234;47.446;21.636;2024-01-27T02:04:29;22.70;;;22.43;;
79751;SDS011;69234;47.446;21.636;2024-01-27T02:05:13;22.07;;;21.73;;
79751;SDS011;69234;47.446;21.636;2024-01-27T02:05:44;21.13;;;20.90;;
79751;SDS011;69234;47.446;21.636;2024-01-27T02:06:15;20.30;;;20.07;;
79751;SDS011;69234;47.446;21.636;2024-01-27T02:06:46;22.47;;;22.13;;
79751;SDS011;69234;47.446;21.636;2024-01-27T02:07:17;21.53;;;21.13;;
79751;SDS011;69234;47.446;21.636;2024-01-27T02:07:48;21.60;;;21.27;;
79751;SDS011;69234;47.446;21.636;2024-01-27T02:08:19;22.13;;;21.80;;
79751;SDS011;69234;47.446;21.636;2024-01-27T02:08:50;22.03;;;21.63;;
79751;SDS011;69234;47.446;21.636;2024-01-27T02:09:21;22.00;;;21.67;;
79751;SDS011;69234;47.446;21.636;2024-01-27T02:09:52;21.97;;;21.77;;
79751;SDS011;69234;47.446;21.636;2024-01-27T02:10:23;21.07;;;20.77;;
79751;SDS011;69234;47.446;21.636;2024-01-27T02:10:54;21.43;;;21.10;;
79751;SDS011;69234;47.446;21.636;2024-01-27T02:11:25;21.50;;;21.20;;
79751;SDS011;69234;47.446;21.636;2024-01-27T02:11:56;21.50;;;21.23;;
79751;SDS011;69234;47.446;21.636;2024-01-27T02:12:27;22.30;;;21.90;;
79751;SDS011;69234;47.446;21.636;2024-01-27T02:12:58;22.83;;;22.47;;
79751;SDS011;69234;47.446;21.636;2024-01-27T02:13:29;24.30;;;23.87;;
79751;SDS011;69234;47.446;21.636;2024-01-27T02:14:00;23.63;;;23.17;;
79751;SDS011;69234;47.446;21.636;2024-01-27T02:14:31;23.60;;;23.20;;
79751;SDS011;69234;47.446;21.636;2024-01-27T02:15:02;23.57;;;23.13;;
79751;SDS011;69234;47.446;21.636;2024-01-27T02:15:33;24.10;;;23.73;;
79751;SDS011;69234;47.446;21.636;2024-01-27T02:16:04;24.33;;;24.07;;
79751;SDS011;69234;47.446;21.636;2024-01-27T02:16:35;26.43;;;26.17;;
79751;SDS011;69234;47.446;21.636;2024-01-27T02:17:06;27.00;;;26.80;;
79751;SDS011;69234;47.446;21.636;2024-01-27T02:17:38;26.30;;;26.03;;
79751;SDS011;69234;47.446;21.636;2024-01-27T02:18:12;26.90;;;26.70;;
79751;SDS011;69234;47.446;21.636;2024-01-27T02:18:43;29.13;;;28.97;;
79751;SDS011;69234;47.446;21.636;2024-01-27T02:19:14;30.00;;;29.77;;
79751;SDS011;69234;47.446;21.636;2024-01-27T02:19:45;30.97;;;30.50;;
79751;SDS011;69234;47.446;21.636;2024-01-27T02:20:16;30.67;;;30.13;;
79751;SDS011;69234;47.446;21.636;2024-01-27T02:20:47;30.67;;;30.17;;
79751;SDS011;69234;47.446;21.636;2024-01-27T02:21:19;31.27;;;31.00;;
79751;SDS011;69234;47.446;21.636;2024-01-27T02:21:50;31.83;;;31.40;;
79751;SDS011;69234;47.446;21.636;2024-01-27T02:22:21;32.57;;;32.07;;
79751;SDS011;69234;47.446;21.636;2024-01-27T02:22:52;31.87;;;31.43;;
79751;SDS011;69234;47.446;21.636;2024-01-27T02:23:23;31.57;;;31.10;;
79751;SDS011;69234;47.446;21.636;2024-01-27T02:23:54;31.03;;;30.60;;
79751;SDS011;69234;47.446;21.636;2024-01-27T02:24:25;27.60;;;27.17;;
79751;SDS011;69234;47.446;21.636;2024-01-27T02:24:58;26.13;;;25.67;;
79751;SDS011;69234;47.446;21.636;2024-01-27T02:25:29;26.83;;;26.43;;
79751;SDS011;69234;47.446;21.636;2024-01-27T02:26:00;24.77;;;24.57;;
79751;SDS011;69234;47.446;21.636;2024-01-27T02:26:31;23.87;;;23.60;;
79751;SDS011;69234;47.446;21.636;2024-01-27T02:27:02;24.20;;;23.87;;
79751;SDS011;69234;47.446;21.636;2024-01-27T02:27:33;24.77;;;24.37;;
79751;SDS011;69234;47.446;21.636;2024-01-27T02:28:04;23.57;;;23.27;;
79751;SDS011;69234;47.446;21.636;2024-01-27T02:28:36;23.90;;;23.57;;
79751;SDS011;69234;47.446;21.636;2024-01-27T02:29:06;23.37;;;23.07;;
79751;SDS011;69234;47.446;21.636;2024-01-27T02:29:37;23.20;;;22.97;;
79751;SDS011;69234;47.446;21.636;2024-01-27T02:30:08;22.97;;;22.77;;
79751;SDS011;69234;47.446;21.636;2024-01-27T02:30:39;23.57;;;23.27;;
79751;SDS011;69234;47.446;21.636;2024-01-27T02:31:10;23.07;;;22.80;;
79751;SDS011;69234;47.446;21.636;2024-01-27T02:31:41;22.30;;;22.10;;
79751;SDS011;69234;47.446;21.636;2024-01-27T02:32:12;21.63;;;21.37;;
79751;SDS011;69234;47.446;21.636;2024-01-27T02:32:43;23.23;;;22.77;;
79751;SDS011;69234;47.446;21.636;2024-01-27T02:33:14;23.70;;;23.23;;
79751;SDS011;69234;47.446;21.636;2024-01-27T02:33:45;23.33;;;22.93;;
79751;SDS011;69234;47.446;21.636;2024-01-27T02:34:16;22.53;;;22.13;;
79751;SDS011;69234;47.446;21.636;2024-01-27T02:34:47;22.93;;;22.67;;
79751;SDS011;69234;47.446;21.636;2024-01-27T02:35:18;24.20;;;23.83;;
79751;SDS011;69234;47.446;21.636;2024-01-27T02:35:49;23.57;;;23.23;;
79751;SDS011;69234;47.446;21.636;2024-01-27T02:36:20;21.90;;;21.67;;
79751;SDS011;69234;47.446;21.636;2024-01-27T02:36:51;21.53;;;21.27;;
79751;SDS011;69234;47.446;21.636;2024-01-27T02:37:22;23.00;;;22.70;;
79751;SDS011;69234;47.446;21.636;2024-01-27T02:37:53;24.37;;;23.97;;
79751;SDS011;69234;47.446;21.636;2024-01-27T02:38:24;25.07;;;24.67;;
79751;SDS011;69234;47.446;21.636;2024-01-27T02:38:54;25.20;;;24.93;;
79751;SDS011;69234;47.446;21.636;2024-01-27T02:39:25;25.30;;;25.03;;
79751;SDS011;69234;47.446;21.636;2024-01-27T02:39:56;25.73;;;25.43;;
79751;SDS011;69234;47.446;21.636;2024-01-27T02:40:27;24.50;;;24.23;;
79751;SDS011;69234;47.446;21.636;2024-01-27T02:40:58;23.57;;;23.20;;
79751;SDS011;69234;47.446;21.636;2024-01-27T02:41:29;22.70;;;22.33;;
79751;SDS011;69234;47.446;21.636;2024-01-27T02:42:00;23.47;;;23.10;;
79751;SDS011;69234;47.446;21.636;2024-01-27T02:42:31;22.83;;;22.40;;
79751;SDS011;69234;47.446;21.636;2024-01-27T02:43:02;23.30;;;22.97;;
79751;SDS011;69234;47.446;21.636;2024-01-27T02:43:33;23.27;;;22.80;;
79751;SDS011;69234;47.446;21.636;2024-01-27T02:44:06;21.93;;;21.53;;
79751;SDS011;69234;47.446;21.636;2024-01-27T02:44:37;25.20;;;24.63;;
79751;SDS011;69234;47.446;21.636;2024-01-27T02:45:08;27.57;;;26.90;;
79751;SDS011;69234;47.446;21.636;2024-01-27T02:45:41;25.87;;;25.27;;
79751;SDS011;69234;47.446;21.636;2024-01-27T02:46:12;25.30;;;24.77;;
79751;SDS011;69234;47.446;21.636;2024-01-27T02:46:45;24.20;;;23.57;;
79751;SDS011;69234;47.446;21.636;2024-01-27T02:47:16;23.97;;;23.37;;
79751;SDS011;69234;47.446;21.636;2024-01-27T02:47:47;23.53;;;22.97;;
79751;SDS011;69234;47.446;21.636;2024-01-27T02:48:18;24.00;;;23.60;;
79751;SDS011;69234;47.446;21.636;2024-01-27T02:48:49;25.07;;;24.80;;
79751;SDS011;69234;47.446;21.636;2024-01-27T02:49:21;26.50;;;25.93;;
79751;SDS011;69234;47.446;21.636;2024-01-27T02:49:52;28.33;;;27.73;;
79751;SDS011;69234;47.446;21.636;2024-01-27T02:50:23;27.13;;;26.53;;
79751;SDS011;69234;47.446;21.636;2024-01-27T02:50:53;28.97;;;28.40;;
79751;SDS011;69234;47.446;21.636;2024-01-27T02:51:24;29.13;;;28.60;;
79751;SDS011;69234;47.446;21.636;2024-01-27T02:51:55;26.50;;;26.27;;
79751;SDS011;69234;47.446;21.636;2024-01-27T02:52:26;26.27;;;25.97;;
79751;SDS011;69234;47.446;21.636;2024-01-27T02:52:57;27.13;;;26.73;;
79751;SDS011;69234;47.446;21.636;2024-01-27T02:53:28;27.87;;;27.40;;
79751;SDS011;69234;47.446;21.636;2024-01-27T02:53:59;30.60;;;30.27;;
79751;SDS011;69234;47.446;21.636;2024-01-27T02:54:30;38.13;;;37.53;;
79751;SDS011;69234;47.446;21.636;2024-01-27T02:55:01;41.90;;;40.87;;
79751;SDS011;69234;47.446;21.636;2024-01-27T02:55:32;42.40;;;40.97;;
79751;SDS011;69234;47.446;21.636;2024-01-27T02:56:06;41.70;;;40.23;;
79751;SDS011;69234;47.446;21.636;2024-01-27T02:56:40;40.07;;;38.23;;
79751;SDS011;69234;47.446;21.636;2024-01-27T02:57:11;39.10;;;37.40;;
79751;SDS011;69234;47.446;21.636;2024-01-27T02:57:43;36.13;;;34.97;;
79751;SDS011;69234;47.446;21.636;2024-01-27T02:58:14;33.80;;;33.03;;
79751;SDS011;69234;47.446;21.636;2024-01-27T02:58:45;34.30;;;33.43;;
79751;SDS011;69234;47.446;21.636;2024-01-27T02:59:15;37.70;;;36.83;;
79751;SDS011;69234;47.446;21.636;2024-01-27T02:59:46;40.33;;;39.27;;